Airfield :







YOU CAN JOIN US ON...

 
LOGIN :

Register | Disclaimer

   EN    FR    IT 

 









Legend :    VFR   Marginal VFR   IFR   Intensive IFR   Very Intensive IFR
Visi :
Ceiling :
>= 8 km
>= 3000ft
5 to 8 km
1000 to 3000 ft
1500m to 5 km
500 to 1000 ft
800 to 1500m
200 to 500 ft
< 800m
< 200 ft
Symbols :   Thunderstorms  Fog  Heavy snow  Heavy precipitations  Wind > 20 kt






- Airport Elevation : 38 ft
- IATA code : YMH


CYMH - Mary's Harbour

CURRENT METAR :
  • 202037Z AUTO 27014G26KT 8SM -SN CLR M21/M29 A2953 RMK SLP003

EXPIRED METARs :
  • 202000Z AUTO 26017G27KT 9SM -SN CLR M20/M29 A2952 RMK SLP000
  • 201941Z AUTO 26018G25KT 9SM -SN CLR M20/M29 A2952 RMK SLP997
  • 201923Z AUTO 27021G26KT 9SM -SN CLR M20/M28 A2952 RMK SLP997
  • 201913Z AUTO 26012G21KT 9SM CLR M19/M28 A2952 RMK SLP998
  • 201900Z AUTO 26015G23KT 9SM -SN CLR M19/M28 A2951 RMK SLP994
  • 201840Z AUTO 26014G23KT 9SM CLR M19/M27 A2950 RMK SLP991
  • 201830Z AUTO 25014G21KT 9SM -SN CLR M19/M27 A2949 RMK SLP990
  • 201800Z AUTO 25017G23KT 9SM CLR M18/M27 A2949 RMK SLP987

TAF TAF CYMH
Valid from the 20 at 20:00 until the 21 at 04:00 UTC


201938Z 2020/2104 25015G25KT P6SM FEW030
FM210000 27020G30KT P6SM FEW030
TEMPO 2100/2104 5SM IC RMK FCST BASED ON AUTO OBS. NXT FCST BY 210200Z



MET'MAP, your aeronautical weather chart ! - Copyright ORBIFLY December 2007 - Disclaimer

ORBIFLY MET'MAP TEAM :

Programming & Development : Alexandra Zaïnal
Concept & original design : Baudouin d'Aumeries
Assistance for programming : Marc-Olivier Méhu
Technical & hardware support : Manuel Goepfert

Contact : metmap@orbifly.com




SOURCES & CREDITS :

   NOAA